createdAt,value
2023-03-17T00:01:56.390Z,57.28
2023-03-17T00:07:00.174Z,60.42
2023-03-17T00:12:03.319Z,63.78
2023-03-17T00:17:06.964Z,56.53
2023-03-17T00:22:18.346Z,56.75
2023-03-17T00:27:21.402Z,57.20
2023-03-17T00:32:24.536Z,62.15
2023-03-17T00:37:27.876Z,62.90
2023-03-17T00:42:31.745Z,62.28
2023-03-17T00:47:34.875Z,59.47
2023-03-17T00:52:39.182Z,62.08
2023-03-17T00:57:43.251Z,58.63
2023-03-17T01:02:47.017Z,63.95
2023-03-17T01:07:54.930Z,67.57
2023-03-17T01:12:59.437Z,57.03
2023-03-17T01:18:03.232Z,66.55
2023-03-17T01:23:06.554Z,55.72
2023-03-17T01:28:20.895Z,61.53
2023-03-17T01:33:24.173Z,56.58
2023-03-17T01:38:27.256Z,60.13
2023-03-17T01:43:31.546Z,53.30
2023-03-17T01:48:38.942Z,55.15
2023-03-17T01:53:42.477Z,56.38
2023-03-17T01:58:50.158Z,55.47
2023-03-17T02:03:54.361Z,57.67
2023-03-17T02:08:58.385Z,57.05
2023-03-17T02:14:01.420Z,56.17
2023-03-17T02:19:04.610Z,58.13
2023-03-17T02:24:39.243Z,60.70
2023-03-17T02:29:43.005Z,54.00
2023-03-17T02:34:47.693Z,51.90
2023-03-17T02:39:50.781Z,48.88
2023-03-17T02:44:54.597Z,52.20
2023-03-17T02:49:57.818Z,55.55
2023-03-17T02:55:00.912Z,50.08
2023-03-17T03:00:04.656Z,52.40
2023-03-17T03:05:09.153Z,52.05
2023-03-17T03:10:12.260Z,54.47
2023-03-17T03:15:15.984Z,51.58
2023-03-17T03:20:19.552Z,58.30
2023-03-17T03:25:22.654Z,51.58
2023-03-17T03:30:25.703Z,51.35
2023-03-17T03:35:29.898Z,47.88
2023-03-17T03:40:33.300Z,50.92
2023-03-17T03:45:36.433Z,46.40
2023-03-17T03:50:39.580Z,53.08
2023-03-17T03:55:42.734Z,42.53
2023-03-17T04:00:45.960Z,41.22
2023-03-17T04:05:49.116Z,46.17
2023-03-17T04:10:52.134Z,45.60
2023-03-17T04:15:55.254Z,44.13
2023-03-17T04:20:58.336Z,40.95
2023-03-17T04:26:01.823Z,40.95
2023-03-17T04:31:04.969Z,40.00
2023-03-17T04:36:08.781Z,43.50
2023-03-17T04:41:12.786Z,35.97
2023-03-17T04:46:16.689Z,39.08
2023-03-17T04:51:19.985Z,34.78
2023-03-17T04:56:23.130Z,38.33
2023-03-17T05:01:26.678Z,40.17
2023-03-17T05:06:30.056Z,37.30
2023-03-17T05:11:33.190Z,41.25
2023-03-17T05:16:36.448Z,34.80
2023-03-17T05:21:39.481Z,31.55
2023-03-17T05:26:42.503Z,37.13
2023-03-17T05:31:46.585Z,40.97
2023-03-17T05:36:50.799Z,34.72
2023-03-17T05:41:53.959Z,39.15
2023-03-17T05:46:59.942Z,40.92
2023-03-17T05:52:03.335Z,36.40
2023-03-17T05:57:06.489Z,36.50
2023-03-17T06:02:09.972Z,34.53
2023-03-17T06:07:13.394Z,38.20
2023-03-17T06:12:16.657Z,33.90
2023-03-17T06:17:19.824Z,36.92
2023-03-17T06:22:22.976Z,34.95
2023-03-17T06:27:26.210Z,34.35
2023-03-17T06:32:30.971Z,30.58
2023-03-17T06:37:34.522Z,34.90
2023-03-17T06:42:37.657Z,35.60
2023-03-17T06:47:41.097Z,39.22
2023-03-17T06:52:46.273Z,36.63
2023-03-17T06:57:51.219Z,35.15
2023-03-17T07:02:55.741Z,32.45
2023-03-17T07:07:58.946Z,31.65
2023-03-17T07:13:02.736Z,29.23
2023-03-17T07:18:07.290Z,31.25
2023-03-17T07:23:19.567Z,30.58
2023-03-17T07:28:22.994Z,30.63
2023-03-17T07:33:26.377Z,30.70
2023-03-17T07:38:29.452Z,27.33
2023-03-17T07:43:32.481Z,28.05
2023-03-17T07:48:37.926Z,29.90
2023-03-17T07:53:41.253Z,28.00
2023-03-17T07:58:45.150Z,29.38
2023-03-17T08:03:48.433Z,29.73
2023-03-17T08:08:53.059Z,24.73
2023-03-17T08:13:56.156Z,28.50
2023-03-17T08:18:59.477Z,29.25
2023-03-17T08:24:04.890Z,27.77
2023-03-17T08:29:08.902Z,31.02
2023-03-17T08:34:12.620Z,26.20
2023-03-17T08:39:15.863Z,26.63
2023-03-17T08:44:19.871Z,26.77
2023-03-17T08:49:23.532Z,25.73
2023-03-17T08:54:26.816Z,22.50
2023-03-17T08:59:30.215Z,24.52
2023-03-17T09:04:34.305Z,26.52
2023-03-17T09:09:37.887Z,25.52
2023-03-17T09:14:44.377Z,22.25
2023-03-17T09:19:48.479Z,26.35
2023-03-17T09:24:51.686Z,21.77
2023-03-17T09:29:54.896Z,24.35
2023-03-17T09:34:58.011Z,20.33
2023-03-17T09:40:01.374Z,22.63
2023-03-17T09:45:23.785Z,20.92
2023-03-17T09:50:33.100Z,21.63
2023-03-17T09:55:38.343Z,21.15
2023-03-17T10:00:41.891Z,18.15
2023-03-17T10:05:45.213Z,22.55
2023-03-17T10:11:35.619Z,22.17
2023-03-17T10:16:51.287Z,18.40
2023-03-17T10:22:00.922Z,19.45
2023-03-17T10:27:07.909Z,18.92
2023-03-17T10:32:14.833Z,19.33
2023-03-17T10:37:20.051Z,20.33
2023-03-17T10:42:26.440Z,18.63
2023-03-17T10:47:33.585Z,21.55
2023-03-17T10:52:41.078Z,22.17
2023-03-17T10:58:10.381Z,19.75
2023-03-17T11:03:23.742Z,21.52
2023-03-17T11:08:32.054Z,19.92
2023-03-17T11:13:35.215Z,20.80
2023-03-17T11:18:40.042Z,19.83
2023-03-17T11:23:43.028Z,20.55
2023-03-17T11:28:57.595Z,19.08
2023-03-17T11:34:18.569Z,21.10
2023-03-17T11:39:27.743Z,20.65
2023-03-17T11:44:55.565Z,17.02
2023-03-17T11:50:30.441Z,19.63
2023-03-17T11:55:33.607Z,21.42
2023-03-17T12:00:43.848Z,22.63
2023-03-17T12:05:51.518Z,19.95
2023-03-17T12:10:57.660Z,21.80
2023-03-17T12:16:06.393Z,21.20
2023-03-17T12:21:31.306Z,21.85
2023-03-17T12:26:52.706Z,21.38
2023-03-17T12:32:03.788Z,21.65
2023-03-17T12:37:07.986Z,21.95
2023-03-17T12:42:25.835Z,18.75
2023-03-17T12:52:54.555Z,20.67
2023-03-17T12:58:08.405Z,17.77
2023-03-17T13:03:26.754Z,20.08
2023-03-17T13:08:33.635Z,21.98
2023-03-17T13:13:54.835Z,22.85
2023-03-17T13:19:31.482Z,24.27
2023-03-17T13:24:47.682Z,21.88
2023-03-17T13:29:50.746Z,21.45
2023-03-17T13:35:02.538Z,30.23
2023-03-17T13:40:15.996Z,39.20
2023-03-17T13:45:46.987Z,40.42
2023-03-17T13:50:58.086Z,38.88
2023-03-17T13:56:25.437Z,35.60
2023-03-17T14:01:33.157Z,31.80
2023-03-17T14:06:38.431Z,34.45
2023-03-17T14:11:45.666Z,35.15
2023-03-17T14:17:01.456Z,32.85
2023-03-17T14:22:22.420Z,34.83
2023-03-17T14:27:26.869Z,33.40
2023-03-17T14:32:30.070Z,31.30
2023-03-17T14:37:33.680Z,32.78
2023-03-17T14:42:36.743Z,33.63
2023-03-17T14:47:43.538Z,33.53
2023-03-17T14:52:46.658Z,32.72
2023-03-17T14:57:52.186Z,33.53
2023-03-17T15:02:57.138Z,30.33
2023-03-17T15:08:00.591Z,27.98
2023-03-17T15:13:06.709Z,30.35
2023-03-17T15:23:21.237Z,30.35
2023-03-17T15:28:31.810Z,30.73
2023-03-17T15:33:38.031Z,27.88
2023-03-17T15:38:41.299Z,32.25
2023-03-17T15:43:44.262Z,28.15
2023-03-17T15:48:47.439Z,29.70
2023-03-17T15:53:50.729Z,33.10
2023-03-17T15:58:53.766Z,32.60
2023-03-17T16:03:57.054Z,31.65
2023-03-17T16:09:00.262Z,33.97
2023-03-17T16:14:03.298Z,34.38
2023-03-17T16:19:10.472Z,37.08
2023-03-17T16:24:22.067Z,29.48
2023-03-17T16:29:25.110Z,30.95
2023-03-17T16:34:28.080Z,31.45
2023-03-17T16:39:32.481Z,31.95
2023-03-17T16:44:35.646Z,29.65
2023-03-17T16:49:38.778Z,31.30
2023-03-17T16:54:41.821Z,30.48
2023-03-17T16:59:44.880Z,30.48
2023-03-17T17:04:48.015Z,28.75
2023-03-17T17:09:51.168Z,29.35
2023-03-17T17:14:54.242Z,33.50
2023-03-17T17:19:57.344Z,31.13
2023-03-17T17:25:00.439Z,30.85
2023-03-17T17:30:04.960Z,32.58
2023-03-17T17:35:08.914Z,29.95
2023-03-17T17:40:16.510Z,28.58
2023-03-17T17:45:20.699Z,28.70
2023-03-17T17:50:28.356Z,29.23
2023-03-17T17:55:33.288Z,31.40
2023-03-17T18:00:36.646Z,25.42
2023-03-17T18:05:39.841Z,25.98
2023-03-17T18:10:43.231Z,25.95
2023-03-17T18:15:46.433Z,30.73
2023-03-17T18:20:50.018Z,28.63
2023-03-17T18:26:00.538Z,29.67
2023-03-17T18:31:09.873Z,29.92
2023-03-17T18:36:13.480Z,29.67
2023-03-17T18:41:16.641Z,33.90
2023-03-17T18:46:19.693Z,33.85
2023-03-17T18:51:22.826Z,34.17
2023-03-17T18:56:29.439Z,29.73
2023-03-17T19:01:32.930Z,27.48
2023-03-17T19:06:39.731Z,24.70
2023-03-17T19:11:43.146Z,24.23
2023-03-17T19:16:46.677Z,25.25
2023-03-17T19:21:50.259Z,29.77
2023-03-17T19:26:53.360Z,29.50
2023-03-17T19:31:56.558Z,29.58
2023-03-17T19:37:01.783Z,27.42
2023-03-17T19:42:06.121Z,26.80
2023-03-17T19:47:09.269Z,28.15
2023-03-17T19:52:12.312Z,25.90
2023-03-17T19:57:17.229Z,24.88
2023-03-17T20:02:21.176Z,25.48
2023-03-17T20:07:24.195Z,23.38
2023-03-17T20:12:27.314Z,24.15
2023-03-17T20:17:30.359Z,21.17
2023-03-17T20:22:33.861Z,21.23
2023-03-17T20:27:37.011Z,21.92
2023-03-17T20:32:40.446Z,19.83
2023-03-17T20:37:43.574Z,21.75
2023-03-17T20:42:46.884Z,21.42
2023-03-17T20:47:50.186Z,22.02
2023-03-17T20:52:53.136Z,24.15
2023-03-17T20:57:59.017Z,19.85
2023-03-17T21:03:02.459Z,23.55
2023-03-17T21:08:07.173Z,27.65
2023-03-17T21:13:10.233Z,23.70
2023-03-17T21:18:14.707Z,22.20
2023-03-17T21:23:17.736Z,21.88
2023-03-17T21:28:21.921Z,21.40
2023-03-17T21:33:24.999Z,20.67
2023-03-17T21:38:28.675Z,21.60
2023-03-17T21:43:31.672Z,21.45
2023-03-17T21:48:34.809Z,20.85
2023-03-17T21:53:37.956Z,18.70
2023-03-17T21:58:41.480Z,18.58
2023-03-17T22:03:44.887Z,19.85
2023-03-17T22:08:49.037Z,18.20
2023-03-17T22:13:52.540Z,18.75
2023-03-17T22:18:55.825Z,18.75
2023-03-17T22:23:58.978Z,18.80
2023-03-17T22:29:02.021Z,19.70
2023-03-17T22:34:05.143Z,16.80
2023-03-17T22:39:11.187Z,22.88
2023-03-17T22:44:14.480Z,20.08
2023-03-17T22:49:17.525Z,17.15
2023-03-17T22:54:21.996Z,17.95
2023-03-17T22:59:25.084Z,19.58
2023-03-17T23:04:28.117Z,18.73
2023-03-17T23:09:32.907Z,17.73
2023-03-17T23:14:36.024Z,18.20
2023-03-17T23:19:39.289Z,19.98
2023-03-17T23:24:42.319Z,20.88
2023-03-17T23:29:45.445Z,19.83
2023-03-17T23:34:48.605Z,18.98
2023-03-17T23:39:51.618Z,20.70
2023-03-17T23:44:55.096Z,20.40
2023-03-17T23:49:58.270Z,17.33
2023-03-17T23:55:01.472Z,20.65
